Flight Track Log - Related Links

Times and Time Zones

All times are in EDT time to prevent confusion due to time zone crossing. See the SWA286 flight status page for this flight to view local times or setup timezone preferences in your user account.

Time Position Orientation Groundspeed Altitude Reporting Facility
EDT Latitude Longitude Course Direction KTS km/h meters Rate Location/Type
Tue 16:43:32 36.1000 -86.6833 238° Southwest 165 306 457  Level Nashville TRACON
Tue 16:44:02 36.0833 -86.7167 238° Southwest 176 327 732 508 Climbing Nashville TRACON
Tue 16:45:02 36.1000 -86.7833 287° West 230 426 1,219 374 Climbing Nashville TRACON
Tue 16:46:14 36.1167 -86.8833 282° West 234 433 1,554 700 Climbing Nashville TRACON
Tue 16:48:05 36.1636 -87.0150 294° West 253 468 3,353 802 Climbing Memphis Center
Tue 16:49:05 36.1931 -87.1114 291° West 283 525 3,840 747 Climbing Memphis Center
Tue 16:50:05 36.2272 -87.2233 291° West 335 621 4,846 945 Climbing Memphis Center
Tue 16:51:05 36.2575 -87.3508 286° West 352 652 5,730 853 Climbing Memphis Center
Tue 16:52:05 36.2836 -87.4761 285° West 365 676 6,553 747 Climbing Memphis Center
Tue 16:53:05 36.3008 -87.6017 280° West 376 697 7,224 655 Climbing Memphis Center
Tue 16:54:05 36.2936 -87.7383 266° West 389 721 7,864 732 Climbing Memphis Center
Tue 16:55:05 36.2922 -87.8775 269° West 406 752 8,687 716 Climbing Memphis Center
Tue 16:56:05 36.2947 -88.0111 271° West 401 742 9,296 564 Climbing Memphis Center
Tue 16:57:05 36.2950 -88.1322 270° West 401 742 9,815 594 Climbing Memphis Center
Tue 16:58:05 36.2950 -88.2583 270° West 390 723 10,485 381 Climbing Memphis Center
Tue 16:59:05 36.2972 -88.3922 271° West 390 723 10,577 198 Climbing Memphis Center
Tue 17:00:05 36.2972 -88.5339 270° West 397 735 10,881 381 Climbing Memphis Center
Tue 17:01:05 36.2992 -88.6728 271° West 404 748 11,339 351 Climbing Memphis Center
Tue 17:02:05 36.3322 -88.8036 287° West 404 748 11,582 122 Climbing Memphis Center
Tue 17:03:05 36.3631 -88.9344 286° West 399 739 11,582  Level Memphis Center
Tue 17:04:05 36.3956 -89.0603 288° West 394 729 11,582  Level Memphis Center
Tue 17:05:05 36.4303 -89.1911 288° West 394 729 11,582  Level Memphis Center
Tue 17:06:05 36.4608 -89.3275 286° West 404 748 11,582  Level Memphis Center
Tue 17:07:05 36.4972 -89.4767 287° West 410 760 11,582  Level Memphis Center
Tue 17:08:05 36.5253 -89.6028 286° West 405 750 11,582  Level Memphis Center
Tue 17:09:05 36.5553 -89.7292 286° West 395 732 11,582  Level Memphis Center
Tue 17:10:05 36.5869 -89.8633 286° West 395 732 11,582  Level Memphis Center
Tue 17:11:05 36.6167 -89.9925 286° West 395 732 11,582  Level Memphis Center
Tue 17:12:05 36.6483 -90.1242 287° West 395 732 11,582  Level Memphis Center
Tue 17:13:05 36.6797 -90.2561 287° West 395 732 11,582  Level Memphis Center
Tue 17:14:05 36.7089 -90.3881 285° West 395 732 11,582  Level Memphis Center
Tue 17:15:05 36.7381 -90.5175 286° West 395 732 11,582  Level Memphis Center
Tue 17:16:05 36.7711 -90.6497 287° West 395 732 11,582  Level Memphis Center
Tue 17:17:05 36.8000 -90.7819 285° West 395 732 11,582  Level Memphis Center
Tue 17:19:13 36.8617 -91.0497 286° West 401 742 11,582  Level Kansas City Center
Tue 17:20:13 36.8950 -91.1914 286° West 401 742 11,582  Level Kansas City Center
Tue 17:21:17 36.9253 -91.3256 286° West 400 740 11,582  Level Kansas City Center
Tue 17:22:18 36.9547 -91.4617 285° West 402 745 11,582  Level Kansas City Center
Tue 17:23:19 36.9842 -91.5975 285° West 403 747 11,582  Level Kansas City Center
Tue 17:24:23 37.0139 -91.7325 285° West 402 745 11,582  Level Kansas City Center
Tue 17:25:26 37.0444 -91.8681 286° West 402 745 11,582  Level Kansas City Center
Tue 17:26:27 37.0806 -92.0306 286° West 402 745 11,582  Level Kansas City Center
Tue 17:27:28 37.1100 -92.1675 285° West 403 747 11,582  Level Kansas City Center
Tue 17:28:32 37.1394 -92.3044 285° West 404 748 11,582  Level Kansas City Center
Tue 17:29:32 37.1697 -92.4428 285° West 407 753 11,582  Level Kansas City Center
Tue 17:30:36 37.1981 -92.5822 284° West 409 758 11,582  Level Kansas City Center
Tue 17:31:37 37.2281 -92.7214 285° West 410 760 11,582  Level Kansas City Center
Tue 17:32:40 37.2589 -92.8622 285° West 412 763 11,582  Level Kansas City Center
Tue 17:33:41 37.2864 -93.0028 284° West 413 764 11,582  Level Kansas City Center
Tue 17:34:42 37.3208 -93.1658 285° West 405 750 11,582  Level Kansas City Center
Tue 17:35:46 37.3500 -93.3053 285° West 406 752 11,582  Level Kansas City Center
Tue 17:36:48 37.3842 -93.4397 288° West 404 748 11,582  Level Kansas City Center
Tue 17:37:48 37.4231 -93.5744 290° West 405 750 11,582  Level Kansas City Center
Tue 17:38:52 37.4619 -93.7097 290° West 408 756 11,582  Level Kansas City Center
Tue 17:39:52 37.4994 -93.8453 289° West 409 758 11,582  Level Kansas City Center
Tue 17:40:56 37.5364 -93.9800 289° West 407 753 11,582  Level Kansas City Center
Tue 17:41:58 37.5789 -94.1369 289° West 405 750 11,582  Level Kansas City Center
Tue 17:42:59 37.6158 -94.2725 289° West 407 753 11,582  Level Kansas City Center
Tue 17:44:00 37.6508 -94.4053 288° West 403 747 11,582  Level Kansas City Center
Tue 17:45:05 37.6900 -94.5472 289° West 407 753 11,582  Level Kansas City Center
Tue 17:46:06 37.7253 -94.6769 289° West 408 756 11,582  Level Kansas City Center
Tue 17:47:08 37.7656 -94.8286 289° West 408 756 11,582  Level Kansas City Center
Tue 17:48:09 37.8003 -94.9600 289° West 410 760 11,582  Level Kansas City Center
Tue 17:49:12 37.8397 -95.1131 288° West 410 760 11,582  Level Kansas City Center
Tue 17:50:13 37.8750 -95.2478 288° West 408 756 11,582  Level Kansas City Center
Tue 17:51:16 37.9108 -95.3833 289° West 406 752 11,582  Level Kansas City Center
Tue 17:52:17 37.9481 -95.5269 288° West 410 760 11,582  Level Kansas City Center
Tue 17:53:20 37.9878 -95.6794 288° West 406 752 11,582  Level Kansas City Center
Tue 17:54:21 38.0217 -95.8089 288° West 404 748 11,582  Level Kansas City Center
Tue 17:55:22 38.0544 -95.9375 288° West 402 745 11,582  Level Kansas City Center
Tue 17:56:27 38.0931 -96.0897 288° West 405 750 11,582  Level Kansas City Center
Tue 17:57:28 38.1261 -96.2250 287° West 407 753 11,582  Level Kansas City Center
Tue 17:58:29 38.1608 -96.3617 288° West 408 756 11,582  Level Kansas City Center
Tue 17:59:33 38.1942 -96.4975 287° West 405 750 11,582  Level Kansas City Center
Tue 18:00:35 38.2289 -96.6325 288° West 403 747 11,582  Level Kansas City Center
Tue 18:01:35 38.2692 -96.7956 288° West 403 747 11,582  Level Kansas City Center
Tue 18:02:39 38.3014 -96.9294 287° West 399 739 11,582  Level Kansas City Center
Tue 18:03:41 38.3347 -97.0636 288° West 399 739 11,582 88 Level Kansas City Center
Tue 18:04:43 38.3669 -97.1978 287° West 398 737 11,765 177 Climbing Kansas City Center
Tue 18:05:45 38.3997 -97.3333 287° West 402 745 11,948 195 Climbing Kansas City Center
Tue 18:06:45 38.4400 -97.5011 287° West 413 764 12,162 119 Climbing Kansas City Center
Tue 18:07:48 38.4733 -97.6428 287° West 419 776 12,192 15 Climbing Kansas City Center
Tue 18:08:50 38.5067 -97.7825 287° West 415 769 12,192  Level Kansas City Center
Tue 18:09:51 38.5400 -97.9236 287° West 417 772 12,192  Level Kansas City Center
Tue 18:10:56 38.5722 -98.0642 286° West 416 771 12,192  Level Kansas City Center
Tue 18:11:57 38.6122 -98.2347 287° West 419 776 12,192  Level Kansas City Center
Tue 18:12:57 38.6453 -98.3772 287° West 420 777 12,192  Level Kansas City Center
Tue 18:14:02 38.6781 -98.5183 287° West 417 772 12,192  Level Kansas City Center
Tue 18:15:04 38.7100 -98.6589 286° West 413 764 12,192  Level Kansas City Center
Tue 18:16:06 38.7414 -98.7972 286° West 407 753 12,192  Level Kansas City Center
Tue 18:17:08 38.7714 -98.9333 286° West 400 740 12,192  Level Kansas City Center
Tue 18:18:11 38.8081 -99.0956 286° West 397 735 12,192  Level Kansas City Center
Tue 18:19:10 38.8381 -99.2317 286° West 396 734 12,192  Level Kansas City Center
Tue 18:20:14 38.8494 -99.3694 276° West 392 726 12,192  Level Kansas City Center
Tue 18:21:15 38.8506 -99.5083 271° West 390 723 12,192  Level Kansas City Center
Tue 18:22:18 38.8517 -99.6717 271° West 392 726 12,192  Level Kansas City Center
Tue 18:23:19 38.8519 -99.8056 270° West 393 727 12,192  Level Kansas City Center
Tue 18:24:20 38.8542 -99.9403 271° West 395 732 12,192  Level Kansas City Center
Tue 18:25:24 38.8544 -100.0981 270° West 401 742 12,192  Level Denver Center
Tue 18:26:26 38.8544 -100.2561 270° West 399 739 12,192  Level Denver Center
Tue 18:27:28 38.8550 -100.3939 270° West 403 747 12,192  Level Denver Center
Tue 18:28:30 38.8556 -100.5525 270° West 402 745 12,192  Level Denver Center
Tue 18:29:31 38.8553 -100.6892 270° West 401 742 12,192  Level Denver Center
Tue 18:30:33 38.8544 -100.8494 270° West 404 748 12,192  Level Denver Center
Tue 18:31:35 38.8542 -100.9628 270° West 403 747 12,192  Level Denver Center
Tue 18:32:37 38.8539 -101.1228 270° West 403 747 12,192 -162 Level Denver Center
Tue 18:33:39 38.8531 -101.2806 270° West 400 740 11,857 -295 Descending Denver Center
Tue 18:34:41 38.8525 -101.4133 270° West 393 727 11,582 -265 Descending Denver Center
Tue 18:35:43 38.8508 -101.5689 269° West 393 727 11,308 -265 Descending Denver Center
Tue 18:36:45 38.8500 -101.6986 270° West 384 711 11,034 -312 Descending Denver Center
Tue 18:37:46 38.8483 -101.8436 269° West 369 684 10,668 -327 Descending Denver Center
Tue 18:38:48 38.8469 -101.9650 269° West 361 668 10,363 -310 Descending Denver Center
Tue 18:39:50 38.8453 -102.1044 269° West 351 650 10,028 -280 Descending Denver Center
Tue 18:40:52 38.8467 -102.2261 271° West 357 661 9,784 -280 Descending Denver Center
Tue 18:41:54 38.8886 -102.3728 290° West 390 723 9,449 -310 Descending Denver Center
Tue 18:42:56 38.9253 -102.4933 291° West 381 705 9,144 -149 Descending Denver Center
Tue 18:43:57 38.9692 -102.6314 292° West 377 698 9,144  Level Denver Center
Tue 18:44:59 39.0133 -102.7583 294° West 381 705 9,144  Level Denver Center
Tue 18:46:01 39.0547 -102.8872 293° West 388 719 9,144  Level Denver Center
Tue 18:47:03 39.0989 -103.0164 294° West 390 723 9,144  Level Denver Center
Tue 18:48:04 39.1339 -103.1250 293° West 392 726 9,144  Level Denver Center
Tue 18:49:07 39.1839 -103.2786 293° West 396 734 9,144 -30 Level Denver Center
Tue 18:50:08 39.2264 -103.4075 293° West 386 715 9,083 -327 Descending Denver Center
Tue 18:51:10 39.2644 -103.5264 292° West 359 665 8,473 -561 Descending Denver Center
Tue 18:52:12 39.3019 -103.6439 292° West 354 655 7,925 -546 Descending Denver Center
Tue 18:53:14 39.3431 -103.7717 293° West 329 610 7,346 -520 Descending Denver Center
Tue 18:54:15 39.3753 -103.8719 293° West 304 563 6,858 -461 Descending Denver Center
Tue 18:55:17 39.4128 -103.9719 296° West 316 586 6,401 -457 Descending Denver Center
Tue 18:56:19 39.4694 -104.0583 310° West 316 586 5,913 -501 Descending Denver Center
Tue 18:57:21 39.5244 -104.1550 306° West 311 576 5,364 -354 Descending Denver Center
Tue 18:58:23 39.5772 -104.2389 309° West 305 565 5,182 -164 Descending Denver Center
Tue 18:59:24 39.6297 -104.3283 307° West 311 576 5,029 -327 Descending Denver Center
Tue 19:00:26 39.6861 -104.4222 308° West 307 568 4,511 -472 Descending Denver Center
Tue 19:01:28 39.7381 -104.5064 309° West 300 555 4,054 -443 Descending Denver Center
Tue 19:02:30 39.8278 -104.5233 352° North 331 613 3,597 -342 Descending Denver Center
Tue 19:03:31 39.9056 -104.5222 North 333 616 3,353 -264 Descending Denver Center
Tue 19:03:53 39.9667 -104.5167 North 308 570 3,231 -401 Descending Denver TRACON
Tue 19:04:53 40.0333 -104.5500 339° North 267 494 2,804 -545 Descending Denver TRACON
Tue 19:05:47 40.0500 -104.6167 288° West 229 425 2,195 -387 Descending Denver TRACON
Tue 19:06:37 40.0267 -104.6711 241° Southwest 216 401 2,134 -49 Descending Denver Center
Tue 19:07:38 39.9761 -104.6858 193° South 188 348 2,103 -149 Descending Denver Center
Tue 19:08:40 39.9267 -104.6872 181° South 165 306 1,829 -236 Descending Denver Center
Tue 19:09:42 39.8814 -104.6875 180° South 156 290 1,615 -206 Descending Denver Center
Tue 19:11:00 39.8617 -104.6732 North  Level Estimated
Tue 19:18:00 39.8617 -104.6732 North  Level Estimated
Tue 19:19:00 39.8617 -104.6732 North  Level Estimated
Tue 19:20:00 39.8617 -104.6732 North  Level Estimated

Login

Don't have an account? Register now (free) for customized features, flight alerts, and more!